Time;durP1;ratioP1;P1;durP2;ratioP2;P2;SDS_P1;SDS_P2;PMS_P1;PMS_P2;Temp;Humidity;BMP_temperature;BMP_pressure;BME280_temperature;BME280_humidity;BME280_pressure;Samples;Min_cycle;Max_cycle;Signal;HPM_P1;HPM_P2
2021/05/24 00:01:04;;;;;;;3.40;3.10;;;6.80;99.90;;;;;;6247514;28;20060;-76
2021/05/24 00:04:06;;;;;;;5.63;2.33;;;6.80;99.90;;;;;;6247592;28;20092;-75
2021/05/24 00:07:07;;;;;;;4.75;2.42;;;6.80;99.90;;;;;;6272240;28;20182;-76
2021/05/24 00:10:12;;;;;;;2.55;2.20;;;6.70;99.90;;;;;;6271672;28;20068;-76
2021/05/24 00:13:17;;;;;;;2.85;2.65;;;6.60;99.90;;;;;;6271627;28;20052;-76
2021/05/24 00:16:18;;;;;;;3.10;2.25;;;6.60;99.90;;;;;;6271913;28;20072;-75
2021/05/24 00:19:19;;;;;;;2.45;2.20;;;6.60;99.90;;;;;;6272425;28;20095;-76
2021/05/24 00:22:21;;;;;;;3.10;2.53;;;6.50;99.90;;;;;;6271593;28;20132;-76
2021/05/24 00:25:22;;;;;;;2.35;2.00;;;6.50;99.90;;;;;;6271700;28;20056;-75
2021/05/24 00:28:25;;;;;;;3.35;2.35;;;6.50;99.90;;;;;;6271899;28;20044;-75
2021/05/24 00:31:26;;;;;;;3.75;2.65;;;6.60;99.90;;;;;;6271912;28;20128;-76
2021/05/24 00:34:27;;;;;;;3.28;2.05;;;6.50;99.90;;;;;;6271652;28;20554;-76
2021/05/24 00:37:29;;;;;;;3.63;2.42;;;6.50;99.90;;;;;;6271821;28;20135;-75
2021/05/24 00:40:30;;;;;;;3.72;2.85;;;6.50;99.90;;;;;;6271291;28;20049;-75
2021/05/24 00:43:33;;;;;;;2.50;2.30;;;6.40;99.90;;;;;;6271743;28;20135;-75
2021/05/24 00:46:35;;;;;;;2.72;2.35;;;6.30;99.90;;;;;;6271519;28;20088;-76
2021/05/24 00:49:36;;;;;;;2.67;2.47;;;6.20;99.90;;;;;;6274881;28;20044;-75
2021/05/24 00:52:38;;;;;;;2.45;2.13;;;6.20;99.90;;;;;;6276768;28;20124;-75
2021/05/24 00:55:39;;;;;;;2.65;2.35;;;6.10;99.90;;;;;;6277563;28;20049;-75
2021/05/24 00:58:41;;;;;;;12.05;2.08;;;6.20;99.90;;;;;;6275693;28;20052;-75
2021/05/24 01:01:43;;;;;;;2.85;1.98;;;6.20;99.90;;;;;;6276017;28;20583;-75
2021/05/24 01:04:44;;;;;;;3.13;2.38;;;6.10;99.90;;;;;;6276120;28;20128;-75
2021/05/24 01:07:45;;;;;;;7.63;2.03;;;6.20;99.90;;;;;;6276651;28;20128;-75
2021/05/24 01:10:47;;;;;;;1.88;1.73;;;6.20;99.90;;;;;;6275556;28;20120;-75
2021/05/24 01:13:49;;;;;;;2.78;2.33;;;6.20;99.90;;;;;;6276307;28;20414;-75
2021/05/24 01:16:52;;;;;;;3.13;2.08;;;6.20;99.90;;;;;;6275850;28;20125;-75
2021/05/24 01:19:53;;;;;;;3.25;2.40;;;6.10;99.90;;;;;;6275778;28;20136;-75
2021/05/24 01:23:06;;;;;;;2.60;2.22;;;6.10;99.90;;;;;;6275626;28;20148;-75
2021/05/24 01:26:09;;;;;;;2.92;2.20;;;6.10;99.90;;;;;;6275687;28;20132;-75
2021/05/24 01:29:10;;;;;;;2.42;2.22;;;6.20;99.90;;;;;;6275255;28;20128;-75
2021/05/24 01:32:12;;;;;;;5.35;2.88;;;6.10;99.90;;;;;;6275796;28;20131;-75
2021/05/24 01:35:13;;;;;;;6.43;2.55;;;6.00;99.90;;;;;;6275820;28;20080;-75
2021/05/24 01:38:16;;;;;;;4.82;2.40;;;6.10;99.90;;;;;;6275331;28;20571;-76
2021/05/24 01:41:17;;;;;;;3.17;2.70;;;6.10;99.90;;;;;;6275189;28;20083;-75
2021/05/24 01:44:28;;;;;;;3.45;2.08;;;6.00;99.90;;;;;;6275246;28;20045;-74
2021/05/24 01:47:29;;;;;;;2.67;2.45;;;6.00;99.90;;;;;;6276376;28;20107;-75
2021/05/24 01:50:31;;;;;;;2.60;2.33;;;6.00;99.90;;;;;;6274601;28;20664;-75
2021/05/24 01:53:34;;;;;;;2.28;1.98;;;5.90;99.90;;;;;;6274967;28;20099;-75
2021/05/24 01:56:35;;;;;;;2.50;2.30;;;5.80;99.90;;;;;;6274760;28;20102;-75
2021/05/24 01:59:37;;;;;;;3.20;2.42;;;5.80;99.90;;;;;;6274403;28;20134;-75
2021/05/24 02:02:42;;;;;;;2.58;1.95;;;5.70;99.90;;;;;;6274526;28;20052;-75
2021/05/24 02:05:43;;;;;;;2.95;2.03;;;5.70;99.90;;;;;;6275092;28;20737;-75
2021/05/24 02:08:45;;;;;;;3.28;2.35;;;5.60;99.90;;;;;;6274294;28;20506;-75
2021/05/24 02:11:47;;;;;;;2.10;1.90;;;5.70;99.90;;;;;;6274496;28;20053;-75
2021/05/24 02:14:50;;;;;;;3.13;2.53;;;5.70;99.90;;;;;;6274662;28;20044;-74
2021/05/24 02:17:52;;;;;;;2.75;2.35;;;5.70;99.90;;;;;;6274226;28;20136;-75
2021/05/24 02:20:53;;;;;;;2.67;2.45;;;5.70;99.90;;;;;;6274523;28;20048;-75
2021/05/24 02:23:55;;;;;;;3.42;2.30;;;5.70;99.90;;;;;;6274856;28;20103;-75
2021/05/24 02:26:56;;;;;;;2.15;1.95;;;5.70;99.90;;;;;;6274534;28;20080;-75
2021/05/24 02:29:58;;;;;;;3.17;2.22;;;5.60;99.90;;;;;;6273846;28;20123;-75
2021/05/24 02:32:59;;;;;;;4.10;2.10;;;5.60;99.90;;;;;;6274280;28;20136;-76
2021/05/24 02:36:01;;;;;;;4.35;2.67;;;5.60;99.90;;;;;;6274334;28;20144;-75
2021/05/24 02:39:07;;;;;;;6.20;2.58;;;5.70;99.90;;;;;;6274097;28;20643;-75
2021/05/24 02:42:08;;;;;;;3.30;3.03;;;5.70;99.90;;;;;;6274445;28;20124;-75
2021/05/24 02:45:12;;;;;;;2.13;1.98;;;5.70;99.90;;;;;;6274234;28;20640;-75
2021/05/24 02:48:13;;;;;;;2.70;2.50;;;5.70;99.90;;;;;;6275154;28;20110;-75
2021/05/24 02:51:15;;;;;;;3.60;3.15;;;5.60;99.90;;;;;;6276800;28;20095;-75
2021/05/24 02:54:17;;;;;;;4.95;3.35;;;5.60;99.90;;;;;;6276952;28;20052;-75
2021/05/24 02:57:18;;;;;;;3.03;2.83;;;5.60;99.90;;;;;;6276550;28;20070;-75
2021/05/24 03:00:22;;;;;;;2.72;2.42;;;5.60;99.90;;;;;;6277418;28;20521;-75
2021/05/24 03:03:24;;;;;;;2.72;2.53;;;5.60;99.90;;;;;;6284812;28;20040;-75
2021/05/24 03:06:25;;;;;;;3.30;3.00;;;5.60;99.90;;;;;;6275879;28;20076;-74
2021/05/24 03:09:27;;;;;;;11.25;2.35;;;5.60;99.90;;;;;;6273141;28;20051;-76
2021/05/24 03:12:29;;;;;;;4.75;3.00;;;5.50;99.90;;;;;;6273080;28;20118;-75
2021/05/24 03:15:30;;;;;;;5.45;3.00;;;5.50;99.90;;;;;;6273597;28;20084;-76
2021/05/24 03:18:31;;;;;;;3.28;2.35;;;5.50;99.90;;;;;;6273143;28;20586;-76
2021/05/24 03:21:33;;;;;;;4.35;3.28;;;5.50;99.90;;;;;;6273324;28;20083;-77
2021/05/24 03:24:37;;;;;;;5.05;4.63;;;5.50;99.90;;;;;;6272876;28;20116;-77
2021/05/24 03:27:40;;;;;;;3.13;2.72;;;5.50;99.90;;;;;;6273438;28;20057;-77
2021/05/24 03:30:41;;;;;;;3.33;3.03;;;5.60;99.90;;;;;;6272556;28;20040;-77
2021/05/24 03:33:42;;;;;;;2.85;2.65;;;5.60;99.90;;;;;;6272458;28;20403;-77
2021/05/24 03:36:44;;;;;;;5.15;3.63;;;5.60;99.90;;;;;;6273187;28;20041;-77
2021/05/24 03:39:46;;;;;;;4.57;3.10;;;5.60;99.90;;;;;;6272776;28;20175;-77
2021/05/24 03:42:47;;;;;;;5.75;4.05;;;5.60;99.90;;;;;;6272361;28;20183;-74
2021/05/24 03:45:49;;;;;;;4.57;3.25;;;5.70;99.90;;;;;;6272652;28;20044;-77
2021/05/24 03:48:50;;;;;;;5.20;3.05;;;5.60;99.90;;;;;;6272192;28;20041;-75
2021/05/24 03:51:52;;;;;;;3.85;3.55;;;5.60;99.90;;;;;;6272949;28;20049;-77
2021/05/24 03:54:54;;;;;;;5.72;3.50;;;5.60;99.90;;;;;;6272589;28;20095;-76
2021/05/24 03:57:55;;;;;;;4.40;3.65;;;5.60;99.90;;;;;;6272086;28;20087;-77
2021/05/24 04:00:56;;;;;;;3.88;3.50;;;5.60;99.90;;;;;;6272064;28;20120;-77
2021/05/24 04:03:58;;;;;;;3.55;3.17;;;5.60;99.90;;;;;;6271984;28;20454;-77
2021/05/24 04:07:01;;;;;;;4.47;3.53;;;5.60;99.90;;;;;;6272608;28;20114;-77
2021/05/24 04:10:04;;;;;;;4.30;3.58;;;5.70;99.90;;;;;;6271646;28;20046;-76
2021/05/24 04:13:06;;;;;;;3.38;2.63;;;5.70;99.90;;;;;;6272505;28;20128;-77
2021/05/24 04:16:07;;;;;;;3.60;3.30;;;5.70;99.90;;;;;;6271884;28;20139;-76
2021/05/24 04:19:10;;;;;;;3.58;3.28;;;5.80;99.90;;;;;;6272268;28;20049;-77
2021/05/24 04:22:12;;;;;;;3.40;3.08;;;5.90;99.90;;;;;;6271226;28;20566;-77
2021/05/24 04:25:14;;;;;;;3.08;2.78;;;6.00;99.90;;;;;;6271640;28;20141;-77
2021/05/24 04:28:15;;;;;;;5.60;3.60;;;6.00;99.90;;;;;;6272195;28;20417;-77
2021/05/24 04:31:17;;;;;;;5.97;5.00;;;6.10;99.90;;;;;;6272427;28;20130;-77
2021/05/24 04:34:18;;;;;;;3.47;3.17;;;6.20;99.90;;;;;;6272001;28;20120;-77
2021/05/24 04:37:19;;;;;;;4.00;3.25;;;6.20;99.90;;;;;;6272092;28;20069;-77
2021/05/24 04:40:21;;;;;;;3.30;3.00;;;6.30;99.90;;;;;;6271571;28;20045;-77
2021/05/24 04:43:28;;;;;;;5.13;4.15;;;6.30;99.90;;;;;;6272168;28;20080;-77
2021/05/24 04:46:29;;;;;;;4.38;3.97;;;6.40;99.90;;;;;;6271514;28;20052;-77
2021/05/24 04:49:32;;;;;;;4.70;4.30;;;6.50;99.90;;;;;;6271363;28;20669;-75
2021/05/24 04:52:33;;;;;;;4.28;3.85;;;6.60;99.90;;;;;;6271192;28;20502;-77
2021/05/24 04:55:35;;;;;;;5.72;3.67;;;6.70;99.90;;;;;;6271716;28;20093;-77
2021/05/24 04:58:37;;;;;;;3.47;3.17;;;6.80;99.90;;;;;;6271001;28;20505;-77
2021/05/24 05:01:38;;;;;;;4.57;3.83;;;6.90;99.90;;;;;;6271811;28;20072;-77
2021/05/24 05:04:39;;;;;;;3.63;3.30;;;7.00;99.90;;;;;;6271199;28;20128;-77
2021/05/24 05:07:41;;;;;;;4.75;3.75;;;7.10;99.90;;;;;;6272068;28;20135;-77
2021/05/24 05:10:45;;;;;;;5.63;3.47;;;7.20;99.90;;;;;;6271550;28;20128;-77
2021/05/24 05:13:46;;;;;;;3.92;3.55;;;7.30;99.90;;;;;;6271672;28;20037;-77
2021/05/24 05:16:48;;;;;;;4.43;3.35;;;7.40;99.90;;;;;;6271593;28;20124;-76
2021/05/24 05:19:49;;;;;;;2.78;2.30;;;7.50;99.90;;;;;;6272409;28;20076;-77
2021/05/24 05:22:50;;;;;;;2.88;2.67;;;7.60;99.90;;;;;;6271602;28;20045;-77
2021/05/24 05:25:52;;;;;;;3.97;3.67;;;7.70;99.90;;;;;;6271516;28;20132;-77
2021/05/24 05:28:54;;;;;;;3.40;3.10;;;7.90;99.90;;;;;;6271030;28;20076;-77
2021/05/24 05:31:55;;;;;;;2.90;2.60;;;8.00;99.90;;;;;;6271382;28;20059;-77
2021/05/24 05:34:56;;;;;;;3.50;2.35;;;8.20;99.90;;;;;;6272113;28;20124;-77
2021/05/24 05:37:58;;;;;;;3.60;3.15;;;8.50;99.90;;;;;;6275456;28;20421;-77
2021/05/24 05:41:01;;;;;;;6.20;3.85;;;8.70;99.90;;;;;;6275509;28;20084;-77
2021/05/24 05:44:04;;;;;;;3.10;2.75;;;8.90;99.90;;;;;;6275304;28;20053;-77
2021/05/24 05:47:05;;;;;;;3.05;2.75;;;9.00;99.90;;;;;;6276518;28;20045;-77
2021/05/24 05:50:08;;;;;;;2.72;2.53;;;9.10;99.90;;;;;;6275035;28;20132;-76
2021/05/24 05:53:09;;;;;;;2.58;2.38;;;9.20;99.80;;;;;;6275047;28;20052;-77
2021/05/24 05:56:11;;;;;;;2.03;1.92;;;9.30;99.60;;;;;;6275125;28;20091;-77
2021/05/24 05:59:13;;;;;;;3.28;2.85;;;9.40;99.60;;;;;;6275703;28;20132;-77
2021/05/24 06:02:14;;;;;;;2.10;1.95;;;9.40;99.50;;;;;;6275024;28;20164;-77
2021/05/24 06:05:16;;;;;;;2.85;2.45;;;9.50;99.20;;;;;;6270027;28;20065;-77
2021/05/24 06:08:17;;;;;;;1.92;1.83;;;9.70;98.90;;;;;;6257446;28;20131;-77
2021/05/24 06:11:20;;;;;;;3.10;2.47;;;9.90;98.20;;;;;;6250335;28;20053;-77
2021/05/24 06:14:22;;;;;;;2.10;1.90;;;10.00;98.10;;;;;;6250460;28;20415;-77
2021/05/24 06:17:24;;;;;;;2.33;1.88;;;10.10;98.10;;;;;;6249971;28;20136;-77
2021/05/24 06:20:25;;;;;;;4.05;2.15;;;10.10;97.20;;;;;;6249994;28;20128;-77
2021/05/24 06:23:28;;;;;;;2.88;1.92;;;10.30;97.00;;;;;;6269791;28;20102;-77
2021/05/24 06:26:30;;;;;;;2.20;1.73;;;10.50;96.40;;;;;;6274946;28;20506;-77
2021/05/24 06:29:32;;;;;;;2.30;1.48;;;10.90;95.50;;;;;;6274817;28;20605;-78
2021/05/24 06:32:34;;;;;;;3.13;1.52;;;11.10;94.50;;;;;;6276045;28;20044;-78
2021/05/24 06:35:35;;;;;;;2.10;1.88;;;11.20;93.60;;;;;;6276630;28;20525;-77
2021/05/24 06:38:36;;;;;;;2.00;1.50;;;11.40;93.00;;;;;;6274271;28;20510;-77
2021/05/24 06:41:39;;;;;;;2.78;1.58;;;11.60;92.50;;;;;;6276010;28;20183;-78
2021/05/24 06:44:40;;;;;;;2.33;1.83;;;11.70;91.80;;;;;;6274814;28;20048;-78
2021/05/24 06:47:42;;;;;;;5.72;1.70;;;11.70;91.00;;;;;;6275467;28;20053;-77
2021/05/24 06:50:43;;;;;;;2.05;1.55;;;11.70;90.70;;;;;;6274376;28;20112;-77
2021/05/24 06:53:44;;;;;;;1.90;1.58;;;11.90;90.40;;;;;;6274917;28;20045;-77
2021/05/24 06:56:47;;;;;;;2.38;1.30;;;12.00;90.10;;;;;;6275625;28;20128;-77
2021/05/24 06:59:48;;;;;;;1.58;1.40;;;12.10;89.60;;;;;;6280707;28;20092;-77
2021/05/24 07:02:49;;;;;;;2.20;1.58;;;12.40;88.90;;;;;;6284058;28;20067;-77
2021/05/24 07:05:51;;;;;;;4.05;1.42;;;12.80;86.60;;;;;;6274185;28;20132;-77
2021/05/24 07:08:53;;;;;;;3.50;1.58;;;13.10;84.10;;;;;;6273612;28;20063;-77
2021/05/24 07:11:55;;;;;;;1.67;1.42;;;13.70;81.00;;;;;;6276112;28;20055;-77
2021/05/24 07:14:56;;;;;;;4.18;1.80;;;14.50;77.60;;;;;;6254069;28;20069;-77
2021/05/24 07:17:57;;;;;;;4.82;1.80;;;15.20;73.80;;;;;;6250357;28;20053;-78
2021/05/24 07:20:59;;;;;;;2.33;1.77;;;15.60;70.80;;;;;;6249866;28;20160;-77
2021/05/24 07:24:00;;;;;;;3.80;2.03;;;15.90;69.80;;;;;;6250103;28;20132;-77
2021/05/24 07:27:02;;;;;;;2.72;1.50;;;15.90;67.80;;;;;;6250005;28;20053;-77
2021/05/24 07:30:05;;;;;;;2.28;1.70;;;15.90;68.00;;;;;;6253742;28;20052;-77
2021/05/24 07:33:06;;;;;;;3.10;1.48;;;16.30;67.20;;;;;;6253563;28;20038;-77
2021/05/24 07:36:08;;;;;;;4.10;1.85;;;16.70;66.10;;;;;;6250984;28;20112;-78
2021/05/24 07:39:09;;;;;;;5.35;2.22;;;16.90;64.20;;;;;;6249920;28;20050;-77
2021/05/24 07:42:11;;;;;;;3.75;2.25;;;17.00;64.60;;;;;;6249026;28;20423;-78
2021/05/24 07:45:14;;;;;;;2.50;2.00;;;16.90;64.20;;;;;;6248605;28;20049;-78
2021/05/24 07:48:15;;;;;;;4.43;1.50;;;17.00;64.10;;;;;;6247722;28;20537;-77
2021/05/24 07:51:16;;;;;;;2.45;1.92;;;17.10;65.00;;;;;;6247679;28;20081;-77
2021/05/24 07:54:19;;;;;;;3.28;1.90;;;17.30;64.60;;;;;;6247759;28;20128;-77
2021/05/24 07:57:21;;;;;;;3.67;1.38;;;17.40;63.60;;;;;;6246710;28;20071;-77
2021/05/24 08:00:27;;;;;;;2.03;1.33;;;17.80;62.30;;;;;;6247532;28;20049;-77
2021/05/24 08:03:28;;;;;;;5.53;1.70;;;18.00;60.00;;;;;;6247707;28;20049;-77
2021/05/24 08:06:30;;;;;;;2.60;1.23;;;18.30;60.20;;;;;;6247426;28;20103;-77
2021/05/24 08:09:31;;;;;;;2.92;1.30;;;18.80;58.10;;;;;;6246840;28;20176;-77
2021/05/24 08:12:36;;;;;;;1.70;0.95;;;19.30;56.90;;;;;;6250360;28;20069;-77
2021/05/24 08:15:37;;;;;;;1.42;1.08;;;19.50;56.40;;;;;;6272596;28;20076;-75
2021/05/24 08:18:39;;;;;;;1.13;0.80;;;19.70;55.70;;;;;;6271596;28;20526;-77
2021/05/24 08:21:41;;;;;;;2.45;1.52;;;20.00;54.90;;;;;;6272131;28;20144;-77
2021/05/24 08:24:42;;;;;;;1.90;0.88;;;20.20;54.00;;;;;;6271580;28;20055;-77
2021/05/24 08:27:45;;;;;;;3.70;1.40;;;20.40;53.50;;;;;;6272674;28;20144;-77
2021/05/24 08:30:46;;;;;;;2.33;1.05;;;20.70;53.10;;;;;;6268902;28;20123;-77
2021/05/24 08:33:47;;;;;;;3.30;1.15;;;21.00;52.20;;;;;;6256929;28;20072;-77
2021/05/24 08:36:49;;;;;;;1.63;1.17;;;21.30;51.50;;;;;;6246424;28;20562;-77
2021/05/24 08:39:50;;;;;;;1.63;1.20;;;21.70;50.30;;;;;;6246759;28;20085;-77
2021/05/24 08:42:56;;;;;;;2.47;1.02;;;22.20;49.20;;;;;;6246281;28;20064;-77
2021/05/24 08:46:00;;;;;;;5.65;1.08;;;22.40;48.00;;;;;;6246905;28;20128;-77
2021/05/24 08:49:01;;;;;;;5.50;0.90;;;22.50;47.80;;;;;;6246771;28;20045;-77
2021/05/24 08:52:03;;;;;;;1.48;1.00;;;22.80;46.80;;;;;;6246793;28;20136;-77
2021/05/24 08:55:06;;;;;;;5.15;1.77;;;23.10;46.30;;;;;;6247253;28;20072;-77
2021/05/24 08:58:09;;;;;;;1.60;1.00;;;23.60;45.20;;;;;;6246761;28;20042;-77
2021/05/24 09:01:10;;;;;;;1.50;0.57;;;23.90;44.60;;;;;;6246257;28;20088;-77
2021/05/24 09:04:11;;;;;;;0.88;0.68;;;24.10;41.60;;;;;;6246501;28;20136;-77
2021/05/24 09:07:13;;;;;;;2.60;0.60;;;24.30;39.60;;;;;;6247748;28;20049;-77
2021/05/24 09:10:15;;;;;;;2.95;0.80;;;24.40;39.00;;;;;;6250114;28;20060;-77
2021/05/24 09:13:19;;;;;;;2.28;0.80;;;24.50;41.20;;;;;;6259417;28;20120;-77
2021/05/24 09:16:28;;;;;;;0.95;0.60;;;24.80;40.80;;;;;;6276458;28;20044;-77
2021/05/24 09:19:31;;;;;;;1.88;1.00;;;25.00;38.90;;;;;;6277263;28;20049;-77
2021/05/24 09:22:32;;;;;;;2.13;0.77;;;25.00;38.70;;;;;;6276939;28;20073;-77
2021/05/24 09:26:06;;;;;;;2.75;1.45;;;25.00;38.40;;;;;;6276700;28;20080;-78
2021/05/24 09:29:08;;;;;;;1.80;0.80;;;25.20;37.80;;;;;;6277481;28;20053;-76
2021/05/24 09:32:17;;;;;;;3.05;1.10;;;25.30;37.60;;;;;;6306555;28;20040;-76
2021/05/24 09:35:29;;;;;;;0.85;0.63;;;25.40;37.50;;;;;;6307172;28;20039;-75
2021/05/24 09:38:36;;;;;;;3.97;0.80;;;25.40;37.90;;;;;;6307548;28;20040;-76
2021/05/24 09:41:43;;;;;;;1.92;0.95;;;25.20;38.20;;;;;;6307209;28;20067;-76
2021/05/24 09:44:46;;;;;;;3.65;1.40;;;24.90;38.90;;;;;;6307455;28;20060;-75
2021/05/24 09:47:49;;;;;;;2.65;0.90;;;24.80;39.70;;;;;;6307490;28;20037;-75
2021/05/24 09:50:54;;;;;;;2.60;1.00;;;24.80;40.20;;;;;;6306836;28;20066;-76
2021/05/24 09:53:59;;;;;;;1.73;0.80;;;24.90;39.70;;;;;;6305572;28;20096;-76
2021/05/24 09:57:05;;;;;;;2.88;1.10;;;24.70;40.00;;;;;;6304986;28;20049;-75
2021/05/24 10:00:17;;;;;;;1.27;0.68;;;24.70;40.80;;;;;;6283291;28;20084;-75
2021/05/24 10:03:22;;;;;;;1.65;1.05;;;24.50;40.50;;;;;;6277898;28;20048;-75
2021/05/24 10:06:23;;;;;;;3.83;0.70;;;24.40;40.20;;;;;;6275792;28;20226;-75
2021/05/24 10:09:25;;;;;;;1.85;0.70;;;24.30;40.60;;;;;;6275706;28;20048;-75
2021/05/24 10:12:26;;;;;;;0.90;0.50;;;24.10;40.20;;;;;;6274803;28;20041;-76
2021/05/24 10:15:29;;;;;;;1.65;0.85;;;24.00;40.60;;;;;;6275734;23;20136;-78
2021/05/24 10:18:31;;;;;;;4.07;0.60;;;24.00;39.80;;;;;;6251709;28;20049;-78
2021/05/24 10:21:33;;;;;;;0.93;0.50;;;23.90;40.20;;;;;;6249419;28;20176;-77
2021/05/24 10:24:34;;;;;;;3.65;0.45;;;23.80;40.00;;;;;;6249836;28;20068;-78
2021/05/24 10:27:35;;;;;;;2.55;0.40;;;23.60;42.50;;;;;;6249587;28;20085;-78
2021/05/24 10:30:38;;;;;;;0.85;0.47;;;23.60;40.00;;;;;;6248904;28;20069;-77
2021/05/24 10:33:41;;;;;;;1.00;0.60;;;23.60;39.00;;;;;;6247136;28;20056;-77
2021/05/24 10:36:44;;;;;;;1.63;0.68;;;23.70;40.30;;;;;;6248470;28;20399;-77
2021/05/24 10:39:47;;;;;;;1.02;0.70;;;23.70;39.60;;;;;;6249321;28;20084;-77
2021/05/24 10:42:48;;;;;;;2.38;0.98;;;23.70;39.00;;;;;;6248791;28;20041;-78
2021/05/24 10:45:57;;;;;;;1.10;0.30;;;23.80;40.30;;;;;;6248482;28;20569;-78
2021/05/24 10:49:02;;;;;;;1.27;0.50;;;23.70;38.90;;;;;;6248928;28;20049;-77
2021/05/24 10:52:10;;;;;;;0.80;0.55;;;23.60;40.50;;;;;;6248301;28;20053;-78
2021/05/24 10:55:37;;;;;;;0.38;0.35;;;23.70;39.80;;;;;;6248775;28;20049;-77
2021/05/24 10:58:41;;;;;;;2.85;1.10;;;23.90;38.10;;;;;;6247353;28;20049;-77
2021/05/24 11:02:00;;;;;;;1.50;0.38;;;23.90;38.80;;;;;;6248940;28;20054;-77
2021/05/24 11:05:06;;;;;;;1.33;0.60;;;24.10;38.40;;;;;;6248404;28;20179;-78
2021/05/24 11:08:08;;;;;;;1.48;0.60;;;24.10;38.00;;;;;;6248744;28;20132;-80
2021/05/24 11:11:20;;;;;;;0.93;0.60;;;24.30;37.00;;;;;;6249408;28;20060;-79
2021/05/24 11:14:21;;;;;;;0.60;0.40;;;24.60;37.30;;;;;;6248764;28;20045;-77
2021/05/24 11:17:23;;;;;;;1.65;0.60;;;24.70;36.90;;;;;;6247751;28;20073;-78
2021/05/24 11:20:28;;;;;;;1.02;0.52;;;24.70;36.80;;;;;;6247822;28;20572;-77
2021/05/24 11:23:41;;;;;;;1.63;0.70;;;24.70;36.50;;;;;;6248168;28;20124;-77
2021/05/24 11:26:42;;;;;;;1.48;0.80;;;24.70;36.10;;;;;;6247476;28;20144;-77
2021/05/24 11:29:47;;;;;;;1.02;0.60;;;24.50;34.90;;;;;;6246937;28;20120;-77
2021/05/24 11:32:49;;;;;;;0.60;0.40;;;24.30;35.50;;;;;;6247110;28;20515;-77
2021/05/24 11:35:52;;;;;;;5.13;0.43;;;24.30;36.80;;;;;;6247696;28;20060;-78
2021/05/24 11:39:04;;;;;;;1.13;0.50;;;24.50;35.60;;;;;;6252770;28;20053;-79
2021/05/24 11:42:08;;;;;;;4.50;0.57;;;24.70;36.40;;;;;;6253291;28;20060;-79
2021/05/24 11:45:17;;;;;;;2.10;0.63;;;24.80;36.60;;;;;;6248905;28;20053;-79
2021/05/24 11:48:33;;;;;;;1.73;0.50;;;24.90;35.40;;;;;;6248897;28;20065;-78
2021/05/24 11:51:35;;;;;;;1.10;0.43;;;25.10;35.70;;;;;;6249442;28;20107;-78
2021/05/24 11:54:37;;;;;;;1.02;0.93;;;25.20;34.30;;;;;;6252568;28;20515;-78
2021/05/24 11:57:42;;;;;;;2.85;0.63;;;25.40;33.90;;;;;;6250036;28;20045;-78
2021/05/24 12:00:43;;;;;;;2.45;0.82;;;25.60;34.10;;;;;;6250950;28;20511;-79
2021/05/24 12:03:47;;;;;;;1.30;0.50;;;25.60;35.00;;;;;;6248842;28;20065;-77
2021/05/24 12:06:51;;;;;;;2.65;0.47;;;25.60;34.60;;;;;;6248625;28;20103;-78
2021/05/24 12:09:53;;;;;;;1.65;0.40;;;25.60;34.10;;;;;;6248582;28;20104;-77
2021/05/24 12:12:57;;;;;;;1.30;0.45;;;25.70;34.00;;;;;;6250363;28;20037;-78
2021/05/24 12:16:03;;;;;;;0.88;0.30;;;25.90;35.20;;;;;;6249829;28;20049;-78
2021/05/24 12:19:06;;;;;;;1.20;0.57;;;25.80;32.10;;;;;;6249491;28;20057;-78
2021/05/24 12:22:08;;;;;;;3.30;0.70;;;26.00;32.30;;;;;;6248197;28;20057;-78
2021/05/24 12:25:12;;;;;;;5.10;1.05;;;26.10;32.60;;;;;;6248688;28;20076;-78
2021/05/24 12:28:15;;;;;;;0.98;0.40;;;26.00;31.50;;;;;;6248915;28;20098;-77
2021/05/24 12:31:17;;;;;;;1.20;0.52;;;25.90;31.40;;;;;;6250829;28;20081;-78
2021/05/24 12:34:26;;;;;;;2.00;0.50;;;25.50;32.50;;;;;;6248432;28;20064;-77
2021/05/24 12:37:27;;;;;;;1.40;0.75;;;25.30;32.60;;;;;;6247196;28;20054;-78
2021/05/24 12:40:30;;;;;;;0.40;0.40;;;25.20;32.30;;;;;;6248386;28;20049;-78
2021/05/24 12:43:32;;;;;;;3.00;0.80;;;24.90;32.90;;;;;;6250049;28;20156;-78
2021/05/24 12:46:40;;;;;;;1.13;0.52;;;24.80;34.30;;;;;;6258927;28;20109;-77
2021/05/24 12:49:46;;;;;;;2.90;0.60;;;24.80;34.20;;;;;;6258199;28;20042;-77
2021/05/24 12:52:47;;;;;;;1.10;0.70;;;24.80;34.90;;;;;;6258521;28;20113;-77
2021/05/24 12:55:50;;;;;;;0.45;0.28;;;24.90;34.50;;;;;;6258431;28;20041;-77
2021/05/24 12:58:52;;;;;;;0.85;0.50;;;25.10;33.40;;;;;;6257288;28;20049;-77
2021/05/24 13:01:54;;;;;;;9.43;8.52;;;24.90;33.30;;;;;;6256365;28;20523;-78
2021/05/24 13:05:10;;;;;;;0.80;0.45;;;24.90;33.30;;;;;;6257001;28;20053;-77
2021/05/24 13:08:17;;;;;;;1.75;0.60;;;24.80;33.70;;;;;;6257104;28;20144;-77
2021/05/24 13:11:19;;;;;;;2.53;1.13;;;24.70;34.20;;;;;;6257151;28;20053;-77
2021/05/24 13:14:26;;;;;;;3.03;0.50;;;24.60;34.10;;;;;;6256397;28;20042;-78
2021/05/24 13:17:34;;;;;;;0.65;0.30;;;24.40;34.50;;;;;;6258047;28;20056;-77
2021/05/24 13:20:49;;;;;;;2.45;0.95;;;24.30;35.30;;;;;;6256958;28;20041;-77
2021/05/24 13:24:07;;;;;;;2.13;0.80;;;24.50;34.50;;;;;;6257439;28;20068;-77
2021/05/24 13:27:23;;;;;;;1.45;0.43;;;24.50;33.70;;;;;;6257407;28;20123;-77
2021/05/24 13:30:27;;;;;;;0.82;0.82;;;24.50;33.60;;;;;;6257093;28;20068;-78
2021/05/24 13:33:34;;;;;;;1.88;0.52;;;24.20;34.90;;;;;;6260274;28;20176;-79
2021/05/24 13:36:38;;;;;;;0.60;0.60;;;24.30;34.10;;;;;;6254717;28;20053;-78
2021/05/24 13:39:40;;;;;;;0.85;0.70;;;24.30;34.10;;;;;;6254937;28;20140;-78
2021/05/24 13:42:42;;;;;;;1.58;0.50;;;24.20;33.20;;;;;;6255546;28;20048;-78
2021/05/24 13:45:43;;;;;;;2.75;1.15;;;24.10;33.90;;;;;;6255050;28;20506;-77
2021/05/24 13:48:44;;;;;;;4.55;0.95;;;24.00;33.60;;;;;;6255153;28;20069;-77
2021/05/24 13:51:47;;;;;;;3.53;0.80;;;24.10;34.00;;;;;;6254568;28;20136;-76
2021/05/24 13:54:48;;;;;;;2.30;0.60;;;24.20;33.90;;;;;;6253085;28;20503;-76
2021/05/24 13:57:50;;;;;;;0.85;0.52;;;24.00;33.70;;;;;;6249435;28;20572;-76
2021/05/24 14:00:51;;;;;;;4.18;0.60;;;23.70;36.50;;;;;;6250292;28;20132;-77
2021/05/24 14:03:52;;;;;;;3.03;0.70;;;23.10;38.50;;;;;;6249866;28;20049;-77
2021/05/24 14:06:55;;;;;;;2.60;1.15;;;22.50;39.80;;;;;;6250462;28;20049;-79
2021/05/24 14:09:56;;;;;;;2.30;0.65;;;22.10;40.90;;;;;;6255029;28;20077;-79
2021/05/24 14:12:58;;;;;;;2.70;0.60;;;21.90;41.60;;;;;;6254866;28;20128;-79
2021/05/24 14:15:59;;;;;;;3.67;1.02;;;21.80;42.30;;;;;;6255071;28;20050;-79
2021/05/24 14:19:00;;;;;;;3.55;1.92;;;21.70;43.10;;;;;;6254816;28;20091;-79
2021/05/24 14:22:03;;;;;;;4.22;0.68;;;21.60;44.00;;;;;;6259519;28;20046;-79
2021/05/24 14:25:06;;;;;;;2.65;1.70;;;21.50;44.00;;;;;;6259222;28;20528;-80
2021/05/24 14:28:07;;;;;;;3.03;0.75;;;21.40;43.50;;;;;;6259849;28;20144;-80
2021/05/24 14:31:09;;;;;;;5.30;0.85;;;21.10;44.10;;;;;;6261236;28;20507;-80
2021/05/24 14:34:11;;;;;;;6.25;1.58;;;20.90;44.90;;;;;;6261639;28;20067;-79
2021/05/24 14:37:13;;;;;;;2.80;1.33;;;20.70;45.70;;;;;;6259717;28;20131;-79
2021/05/24 14:40:15;;;;;;;2.05;0.75;;;20.70;46.20;;;;;;6260012;28;20136;-79
2021/05/24 14:43:16;;;;;;;0.93;0.65;;;20.80;45.90;;;;;;6258715;28;20053;-80
2021/05/24 14:46:17;;;;;;;4.85;0.80;;;20.80;46.00;;;;;;6260149;28;20049;-79
2021/05/24 14:49:19;;;;;;;1.17;0.95;;;20.90;46.00;;;;;;6261398;28;20053;-80
2021/05/24 14:52:21;;;;;;;1.30;0.65;;;21.00;46.20;;;;;;6259100;28;20046;-79
2021/05/24 14:55:23;;;;;;;1.70;0.70;;;21.20;46.30;;;;;;6259916;28;20125;-80
2021/05/24 14:58:24;;;;;;;4.10;0.85;;;21.20;44.40;;;;;;6258455;28;20041;-79
2021/05/24 15:01:26;;;;;;;1.17;0.50;;;21.20;44.00;;;;;;6258747;28;20056;-79
2021/05/24 15:04:27;;;;;;;10.25;1.10;;;21.20;44.00;;;;;;6258196;28;20135;-80
2021/05/24 15:07:30;;;;;;;2.38;0.70;;;21.10;44.50;;;;;;6256893;28;20451;-80
2021/05/24 15:10:32;;;;;;;2.90;0.88;;;20.90;44.90;;;;;;6261164;28;20395;-80
2021/05/24 15:13:33;;;;;;;1.20;0.68;;;20.80;45.20;;;;;;6260281;28;20045;-80
2021/05/24 15:16:35;;;;;;;3.22;0.80;;;20.70;45.40;;;;;;6255776;28;20056;-81
2021/05/24 15:19:36;;;;;;;3.13;1.17;;;20.50;45.80;;;;;;6254933;28;20045;-79
2021/05/24 15:22:38;;;;;;;1.38;1.17;;;20.30;47.20;;;;;;6255465;28;20048;-81
2021/05/24 15:25:40;;;;;;;1.25;0.60;;;20.00;46.60;;;;;;6256077;28;20224;-80
2021/05/24 15:28:43;;;;;;;3.58;1.20;;;19.80;48.10;;;;;;6253622;28;20109;-80
2021/05/24 15:31:48;;;;;;;3.08;1.38;;;19.50;49.00;;;;;;6255081;28;20081;-80
2021/05/24 15:34:51;;;;;;;1.88;0.80;;;19.30;50.80;;;;;;6253654;28;20080;-81
2021/05/24 15:37:53;;;;;;;3.38;1.20;;;19.00;51.00;;;;;;6254027;28;20056;-80
2021/05/24 15:40:54;;;;;;;15.75;9.90;;;18.80;51.20;;;;;;6244594;28;20103;-80
2021/05/24 15:43:57;;;;;;;25.60;9.60;;;18.60;51.40;;;;;;6255462;28;20052;-82
2021/05/24 15:46:58;;;;;;;7.47;6.57;;;18.50;51.80;;;;;;6254481;28;20054;-79
2021/05/24 15:49:59;;;;;;;2.65;2.45;;;18.30;52.30;;;;;;6254114;28;20053;-80
2021/05/24 15:53:03;;;;;;;1.88;0.90;;;18.10;53.20;;;;;;6254435;28;20050;-79
2021/05/24 15:56:05;;;;;;;6.47;3.95;;;17.90;54.60;;;;;;6253792;28;20045;-81